Time;durP1;ratioP1;P1;durP2;ratioP2;P2;SDS_P1;SDS_P2;PMS_P1;PMS_P2;Temp;Humidity;BMP_temperature;BMP_pressure;BME280_temperature;BME280_humidity;BME280_pressure;Samples;Min_cycle;Max_cycle;Signal;HPM_P1;HPM_P2
2023/06/15 00:01:59;;;;;;;8.27;3.10;;;15.40;99.90;14.80;100663;;;;579019;244;24125;-79
2023/06/15 00:04:24;;;;;;;3.23;2.93;;;15.40;99.90;14.80;100668;;;;582903;244;24073;-78
2023/06/15 00:06:52;;;;;;;5.07;3.50;;;15.40;99.90;14.80;100665;;;;574244;244;56954;-79
2023/06/15 00:09:20;;;;;;;7.53;3.53;;;15.40;99.90;14.80;100666;;;;579356;244;24084;-79
2023/06/15 00:11:48;;;;;;;5.27;3.00;;;15.40;99.90;14.90;100661;;;;579351;244;24053;-80
2023/06/15 00:14:15;;;;;;;4.70;2.43;;;15.50;99.90;14.90;100657;;;;578924;244;24080;-79
2023/06/15 00:16:46;;;;;;;4.87;3.00;;;15.50;99.90;14.90;100657;;;;578831;244;24111;-79
2023/06/15 00:19:12;;;;;;;4.77;3.13;;;15.60;99.90;15.00;100659;;;;578662;244;24092;-79
2023/06/15 00:21:44;;;;;;;3.73;2.97;;;15.60;99.90;15.00;100655;;;;578630;244;24109;-80
2023/06/15 00:24:15;;;;;;;3.03;2.50;;;15.60;99.90;15.00;100654;;;;578801;244;24064;-79
2023/06/15 00:26:40;;;;;;;2.47;2.30;;;15.60;99.90;15.00;100654;;;;578526;244;24096;-78
2023/06/15 00:29:09;;;;;;;2.90;2.53;;;15.60;99.90;15.00;100662;;;;578777;244;24078;-81
2023/06/15 00:31:37;;;;;;;4.90;2.90;;;15.60;99.90;15.00;100659;;;;578637;244;24150;-80
2023/06/15 00:34:05;;;;;;;3.80;2.80;;;15.60;99.90;15.00;100666;;;;578982;244;24067;-79
2023/06/15 00:36:35;;;;;;;7.50;2.60;;;15.60;99.90;15.00;100670;;;;579090;244;24060;-79
2023/06/15 00:39:00;;;;;;;4.00;2.97;;;15.60;99.90;15.00;100664;;;;578972;244;24108;-79
2023/06/15 00:41:28;;;;;;;3.47;3.00;;;15.60;99.90;15.00;100667;;;;579085;244;24049;-80
2023/06/15 00:43:56;;;;;;;2.97;2.63;;;15.60;99.90;15.00;100663;;;;578640;244;24099;-79
2023/06/15 00:46:24;;;;;;;4.03;3.27;;;15.60;99.90;15.00;100656;;;;578835;244;24109;-79
2023/06/15 00:48:52;;;;;;;5.47;3.23;;;15.60;99.90;14.90;100652;;;;578778;244;24057;-80
2023/06/15 00:51:20;;;;;;;5.47;2.93;;;15.60;99.90;14.90;100663;;;;578710;244;24104;-78
2023/06/15 00:53:51;;;;;;;4.00;3.53;;;15.50;99.90;14.90;100656;;;;582150;243;24053;-81
2023/06/15 00:56:17;;;;;;;3.20;2.90;;;15.50;99.90;14.80;100656;;;;579892;243;24139;-78
2023/06/15 00:58:44;;;;;;;4.13;3.40;;;15.50;99.90;14.80;100657;;;;579706;244;24118;-79
2023/06/15 01:01:12;;;;;;;4.13;3.47;;;15.40;99.90;14.80;100655;;;;579547;244;24055;-78
2023/06/15 01:03:44;;;;;;;3.67;3.20;;;15.40;99.90;14.70;100655;;;;579223;244;24110;-79
2023/06/15 01:06:13;;;;;;;3.53;3.23;;;15.30;99.90;14.70;100647;;;;579390;244;24066;-79
2023/06/15 01:08:36;;;;;;;5.50;3.20;;;15.30;99.90;14.70;100656;;;;579096;244;24104;-78
2023/06/15 01:11:04;;;;;;;6.43;3.47;;;15.30;99.90;14.70;100650;;;;579540;244;24109;-79
2023/06/15 01:13:32;;;;;;;3.20;2.90;;;15.30;99.90;14.70;100655;;;;579266;244;24109;-77
2023/06/15 01:16:00;;;;;;;4.43;3.40;;;15.30;99.90;14.70;100657;;;;578730;244;24111;-78
2023/06/15 01:18:29;;;;;;;3.27;2.97;;;15.30;99.90;14.70;100658;;;;578870;244;24060;-78
2023/06/15 01:21:00;;;;;;;5.53;3.13;;;15.30;99.90;14.70;100651;;;;578752;244;24104;-78
2023/06/15 01:23:43;;;;;;;7.37;3.27;;;15.30;99.90;14.60;100654;;;;578603;244;24064;-77
2023/06/15 01:26:10;;;;;;;3.43;3.10;;;15.20;99.90;14.60;100651;;;;578467;244;24072;-78
2023/06/15 01:28:35;;;;;;;4.97;3.47;;;15.20;99.90;14.60;100646;;;;578812;244;24080;-78
2023/06/15 01:31:03;;;;;;;4.23;3.83;;;15.20;99.90;14.60;100645;;;;578580;244;24064;-78
2023/06/15 01:33:31;;;;;;;10.13;3.73;;;15.20;99.90;14.50;100638;;;;578898;244;24109;-78
2023/06/15 01:35:59;;;;;;;5.70;4.30;;;15.10;99.90;14.50;100637;;;;574070;244;41618;-78
2023/06/15 01:38:27;;;;;;;7.12;4.40;;;15.10;99.90;14.50;100638;;;;574152;244;35177;-78
2023/06/15 01:40:59;;;;;;;6.67;3.57;;;15.10;99.90;14.50;100637;;;;579102;244;24072;-78
2023/06/15 01:43:24;;;;;;;6.43;4.00;;;15.10;99.90;14.60;100641;;;;573629;244;25083;-79
2023/06/15 01:45:52;;;;;;;5.37;3.70;;;15.20;99.90;14.60;100643;;;;584046;241;24099;-78
2023/06/15 01:48:20;;;;;;;5.40;3.80;;;15.20;99.90;14.60;100643;;;;577935;244;24107;-79
2023/06/15 01:50:50;;;;;;;4.80;3.33;;;15.20;99.90;14.70;100643;;;;578268;244;24061;-79
2023/06/15 01:53:16;;;;;;;4.87;3.47;;;15.30;99.90;14.70;100638;;;;572826;246;24067;-79
2023/06/15 01:55:47;;;;;;;5.87;3.97;;;15.30;99.90;14.70;100640;;;;584027;241;24064;-79
2023/06/15 01:58:15;;;;;;;5.13;3.60;;;15.30;99.90;14.80;100640;;;;573285;246;24123;-79
2023/06/15 02:00:40;;;;;;;4.23;3.83;;;15.40;99.90;14.80;100637;;;;581996;246;24107;-79
2023/06/15 02:03:09;;;;;;;4.60;3.60;;;15.40;99.90;14.80;100638;;;;583501;241;24018;-79
2023/06/15 02:05:39;;;;;;;7.60;3.80;;;15.40;99.90;14.80;100630;;;;574252;245;24090;-80
2023/06/15 02:08:05;;;;;;;7.50;3.73;;;15.40;99.90;14.80;100627;;;;585447;241;24059;-78
2023/06/15 02:10:35;;;;;;;11.37;4.07;;;15.40;99.90;14.80;100630;;;;579254;244;24073;-78
2023/06/15 02:13:03;;;;;;;8.40;3.87;;;15.40;99.90;14.80;100624;;;;574310;246;24082;-79
2023/06/15 02:15:28;;;;;;;6.20;3.87;;;15.40;99.90;14.80;100623;;;;584641;241;24034;-79
2023/06/15 02:18:02;;;;;;;3.77;3.47;;;15.30;99.90;14.70;100618;;;;578546;244;24105;-79
2023/06/15 02:20:33;;;;;;;6.87;4.40;;;15.30;99.90;14.70;100618;;;;574079;246;24073;-79
2023/06/15 02:22:59;;;;;;;5.10;3.90;;;15.30;99.90;14.70;100606;;;;584075;241;24028;-79
2023/06/15 02:25:27;;;;;;;6.90;3.60;;;15.30;99.90;14.70;100614;;;;583676;241;24071;-78
2023/06/15 02:27:58;;;;;;;6.50;4.70;;;15.30;99.90;14.70;100616;;;;578190;244;24116;-79
2023/06/15 02:30:22;;;;;;;5.63;4.60;;;15.20;99.90;14.70;100610;;;;583505;241;24026;-78
2023/06/15 02:32:52;;;;;;;4.93;4.10;;;15.30;99.90;14.60;100620;;;;573832;246;24064;-78
2023/06/15 02:35:17;;;;;;;5.43;3.90;;;15.30;99.90;14.60;100628;;;;583954;241;24027;-78
2023/06/15 02:37:49;;;;;;;5.80;4.10;;;15.20;99.90;14.60;100615;;;;578686;244;24077;-79
2023/06/15 02:40:17;;;;;;;5.30;4.50;;;15.20;99.90;14.60;100623;;;;579417;244;24104;-78
2023/06/15 02:42:42;;;;;;;6.97;4.63;;;15.20;99.90;14.60;100620;;;;578562;244;24136;-79
2023/06/15 02:45:10;;;;;;;4.40;4.00;;;15.20;99.90;14.60;100627;;;;579041;244;24051;-79
2023/06/15 02:47:38;;;;;;;6.53;4.40;;;15.20;99.90;14.50;100630;;;;578707;244;24065;-79
2023/06/15 02:50:06;;;;;;;8.53;4.77;;;15.20;99.90;14.50;100635;;;;578741;244;24049;-79
2023/06/15 02:52:36;;;;;;;4.77;4.23;;;15.20;99.90;14.50;100641;;;;578598;244;24100;-78
2023/06/15 02:55:02;;;;;;;9.83;4.27;;;15.20;99.90;14.50;100636;;;;578493;244;24085;-78
2023/06/15 02:57:31;;;;;;;6.30;4.30;;;15.20;99.90;14.60;100634;;;;578747;244;24143;-79
2023/06/15 02:59:59;;;;;;;4.77;4.37;;;15.20;99.90;14.60;100628;;;;578552;244;24056;-79
2023/06/15 03:02:27;;;;;;;4.47;4.07;;;15.30;99.90;14.60;100626;;;;578747;244;24105;-79
2023/06/15 03:04:56;;;;;;;4.30;3.90;;;15.30;99.90;14.70;100627;;;;579013;244;24089;-79
2023/06/15 03:07:23;;;;;;;4.23;3.83;;;15.30;99.90;14.70;100638;;;;578769;244;24066;-78
2023/06/15 03:09:51;;;;;;;5.87;3.73;;;15.30;99.90;14.70;100633;;;;578686;244;24076;-79
2023/06/15 03:12:21;;;;;;;6.57;3.83;;;15.40;99.90;14.80;100636;;;;578452;244;24060;-79
2023/06/15 03:14:50;;;;;;;5.87;3.67;;;15.40;99.90;14.80;100631;;;;578572;244;24070;-78
2023/06/15 03:17:15;;;;;;;4.50;3.73;;;15.50;99.90;14.90;100632;;;;579208;243;24075;-79
2023/06/15 03:19:46;;;;;;;3.83;3.30;;;15.50;99.90;14.90;100624;;;;579834;243;24099;-78
2023/06/15 03:22:11;;;;;;;4.17;3.57;;;15.60;99.90;15.00;100623;;;;579262;244;24103;-79
2023/06/15 03:24:39;;;;;;;4.80;3.80;;;15.60;99.90;15.00;100623;;;;579368;244;24097;-77
2023/06/15 03:27:07;;;;;;;3.90;3.50;;;15.60;99.90;15.10;100629;;;;579340;244;24056;-79
2023/06/15 03:29:38;;;;;;;4.23;3.60;;;15.70;99.90;15.10;100633;;;;579114;244;24073;-78
2023/06/15 03:32:08;;;;;;;3.87;3.20;;;15.70;99.90;15.00;100633;;;;579380;244;24119;-79
2023/06/15 03:34:37;;;;;;;6.80;4.20;;;15.70;99.90;15.10;100627;;;;579068;244;24174;-79
2023/06/15 03:37:07;;;;;;;10.23;3.60;;;15.70;99.90;15.10;100636;;;;579400;244;24107;-82
2023/06/15 03:39:32;;;;;;;7.50;3.50;;;15.70;99.90;15.10;100637;;;;578777;244;24119;-78
2023/06/15 03:42:01;;;;;;;4.07;3.27;;;15.70;99.90;15.10;100636;;;;579399;244;24070;-78
2023/06/15 03:44:29;;;;;;;3.70;3.30;;;15.70;99.90;15.10;100644;;;;579327;244;24101;-78
2023/06/15 03:46:57;;;;;;;3.77;3.37;;;15.60;99.90;15.00;100637;;;;579431;244;24052;-78
2023/06/15 03:49:25;;;;;;;8.20;3.80;;;15.60;99.90;15.00;100638;;;;579015;244;24112;-80
2023/06/15 03:51:53;;;;;;;10.27;3.73;;;15.60;99.90;15.00;100637;;;;578948;244;24080;-77
2023/06/15 03:54:21;;;;;;;6.23;3.73;;;15.60;99.90;15.00;100633;;;;578896;244;24066;-78
2023/06/15 03:56:49;;;;;;;5.90;4.00;;;15.70;99.90;15.10;100634;;;;578743;244;24058;-79
2023/06/15 03:59:20;;;;;;;5.40;3.80;;;15.70;99.90;15.10;100644;;;;578628;244;24101;-79
2023/06/15 04:01:45;;;;;;;4.17;3.60;;;15.70;99.90;15.10;100651;;;;578800;244;24061;-79
2023/06/15 04:04:14;;;;;;;6.60;4.40;;;15.70;99.90;15.10;100650;;;;574242;244;46038;-79
2023/06/15 04:06:46;;;;;;;4.27;3.87;;;15.70;99.90;15.10;100651;;;;578853;244;24092;-79
2023/06/15 04:09:09;;;;;;;5.67;3.57;;;15.70;99.90;15.10;100650;;;;581283;244;24083;-79
2023/06/15 04:11:37;;;;;;;6.03;4.43;;;15.70;99.90;15.10;100643;;;;578622;244;24052;-78
2023/06/15 04:14:05;;;;;;;8.13;4.27;;;15.70;99.90;15.10;100642;;;;578715;244;24081;-78
2023/06/15 04:16:33;;;;;;;8.47;3.53;;;15.70;99.90;15.10;100650;;;;578617;244;24065;-79
2023/06/15 04:19:01;;;;;;;6.90;4.60;;;15.70;99.90;15.10;100651;;;;578734;244;24080;-79
2023/06/15 04:21:32;;;;;;;9.63;5.07;;;15.60;99.90;15.10;100642;;;;578465;244;24116;-80
2023/06/15 04:24:03;;;;;;;6.93;4.47;;;15.60;99.90;15.10;100640;;;;578735;244;24053;-78
2023/06/15 04:26:29;;;;;;;8.53;4.53;;;15.70;99.90;15.10;100641;;;;578820;244;24060;-77
2023/06/15 04:29:00;;;;;;;6.17;4.03;;;15.70;99.90;15.20;100643;;;;579276;243;24140;-79
2023/06/15 04:31:30;;;;;;;8.10;5.13;;;15.70;99.90;15.20;100641;;;;579931;243;24057;-78
2023/06/15 04:33:58;;;;;;;9.30;5.27;;;15.80;99.90;15.30;100645;;;;579550;244;24096;-78
2023/06/15 04:36:23;;;;;;;7.72;5.68;;;15.90;99.90;15.30;100649;;;;574863;244;56895;-79
2023/06/15 04:38:52;;;;;;;10.07;5.60;;;16.00;99.90;15.40;100652;;;;579695;244;24058;-80
2023/06/15 04:41:27;;;;;;;8.40;5.17;;;16.00;99.90;15.30;100639;;;;579652;244;24093;-79
2023/06/15 04:43:52;;;;;;;6.63;5.10;;;15.90;99.90;15.30;100635;;;;579324;244;24054;-79
2023/06/15 04:46:17;;;;;;;6.00;5.33;;;15.90;99.90;15.20;100639;;;;579267;244;24098;-79
2023/06/15 04:48:47;;;;;;;8.30;5.40;;;15.90;99.90;15.10;100642;;;;579755;244;24121;-79
2023/06/15 04:51:13;;;;;;;9.13;6.00;;;15.80;99.90;15.10;100653;;;;579077;244;24123;-78
2023/06/15 04:53:44;;;;;;;5.93;5.37;;;15.70;99.90;15.10;100641;;;;579047;244;24195;-79
2023/06/15 04:56:15;;;;;;;5.87;5.27;;;15.70;99.90;15.00;100629;;;;578879;244;24062;-79
2023/06/15 04:58:40;;;;;;;5.97;5.43;;;15.70;99.90;15.00;100627;;;;578834;244;24053;-79
2023/06/15 05:01:08;;;;;;;7.30;5.40;;;15.70;99.90;15.00;100626;;;;578948;244;24154;-79
2023/06/15 05:03:36;;;;;;;7.37;5.60;;;15.60;99.90;15.00;100624;;;;578861;244;24104;-80
2023/06/15 05:06:04;;;;;;;5.07;4.37;;;15.70;99.90;15.10;100610;;;;578828;244;24060;-79
2023/06/15 05:08:35;;;;;;;11.02;6.60;;;15.70;99.90;15.10;100606;;;;574060;244;35117;-79
2023/06/15 05:11:03;;;;;;;6.57;5.90;;;15.70;99.90;15.10;100619;;;;579051;244;24090;-79
2023/06/15 05:13:31;;;;;;;8.37;5.17;;;15.70;99.90;15.20;100623;;;;579092;244;24096;-78
2023/06/15 05:15:58;;;;;;;9.50;5.27;;;15.80;99.90;15.20;100625;;;;579039;244;24069;-78
2023/06/15 05:18:26;;;;;;;6.47;4.97;;;15.80;99.90;15.30;100632;;;;579026;244;24083;-80
2023/06/15 05:20:55;;;;;;;10.13;5.80;;;15.90;99.90;15.30;100639;;;;579120;244;24080;-79
2023/06/15 05:23:22;;;;;;;11.90;5.90;;;15.80;99.90;15.20;100633;;;;578720;244;24115;-79
2023/06/15 05:25:51;;;;;;;8.57;6.03;;;15.80;99.90;15.20;100625;;;;578637;244;24118;-80
2023/06/15 05:28:19;;;;;;;9.13;5.50;;;15.80;99.90;15.20;100629;;;;578698;244;24052;-78
2023/06/15 05:30:47;;;;;;;5.57;4.97;;;15.80;99.90;15.20;100625;;;;578614;244;24100;-79
2023/06/15 05:33:15;;;;;;;6.07;5.40;;;15.70;99.90;15.20;100618;;;;578463;244;24067;-79
2023/06/15 05:35:43;;;;;;;7.03;5.23;;;15.70;99.90;15.20;100625;;;;578709;244;24069;-80
2023/06/15 05:38:10;;;;;;;7.67;6.17;;;15.70;99.90;15.20;100628;;;;579004;244;24052;-78
2023/06/15 05:40:38;;;;;;;8.50;5.60;;;15.70;99.90;15.10;100626;;;;579838;243;24083;-79
2023/06/15 05:43:06;;;;;;;9.10;5.63;;;15.70;99.90;15.10;100631;;;;580268;243;24095;-79
2023/06/15 05:45:35;;;;;;;10.80;5.87;;;15.70;99.90;15.10;100634;;;;579974;244;24121;-79
2023/06/15 05:48:06;;;;;;;6.37;5.70;;;15.60;99.90;15.00;100655;;;;579808;244;24077;-76
2023/06/15 05:50:35;;;;;;;9.50;5.70;;;15.60;99.90;15.00;100666;;;;579000;244;24094;-79
2023/06/15 05:52:59;;;;;;;8.20;5.70;;;15.50;99.90;14.90;100686;;;;579208;244;24068;-79
2023/06/15 05:55:28;;;;;;;11.33;5.50;;;15.40;99.90;14.80;100694;;;;579148;244;25123;-79
2023/06/15 05:57:55;;;;;;;14.27;7.27;;;15.40;99.90;14.70;100709;;;;579221;244;24096;-79
2023/06/15 06:00:25;;;;;;;9.43;6.73;;;15.20;99.90;14.50;100720;;;;578947;244;24080;-80
2023/06/15 06:02:52;;;;;;;8.20;5.77;;;15.10;99.90;14.40;100715;;;;578906;244;24146;-79
2023/06/15 06:05:23;;;;;;;10.20;6.13;;;15.00;99.90;14.20;100708;;;;578920;244;24056;-80
2023/06/15 06:07:47;;;;;;;8.30;7.03;;;14.80;99.90;14.20;100696;;;;578701;244;24092;-79
2023/06/15 06:10:15;;;;;;;14.20;6.40;;;14.80;99.90;14.20;100678;;;;579282;244;24101;-79
2023/06/15 06:12:43;;;;;;;14.27;7.33;;;14.70;99.90;14.20;100664;;;;579111;244;24069;-81
2023/06/15 06:15:14;;;;;;;11.23;6.60;;;14.70;99.90;14.10;100668;;;;579363;244;24080;-80
2023/06/15 06:17:39;;;;;;;11.10;6.77;;;14.60;99.90;14.10;100678;;;;578424;244;24057;-80
2023/06/15 06:20:07;;;;;;;8.63;7.33;;;14.60;99.90;14.10;100676;;;;579051;244;24156;-80
2023/06/15 06:22:35;;;;;;;10.17;6.40;;;14.60;99.90;14.10;100678;;;;579048;244;24110;-80
2023/06/15 06:25:06;;;;;;;8.13;6.37;;;14.60;99.90;14.10;100671;;;;578599;244;24107;-80
2023/06/15 06:27:31;;;;;;;11.30;6.67;;;14.60;99.90;14.10;100673;;;;578384;244;24054;-81
2023/06/15 06:29:59;;;;;;;14.40;8.00;;;14.70;99.90;14.10;100667;;;;578659;244;24073;-80
2023/06/15 06:32:27;;;;;;;8.20;7.13;;;14.60;99.90;14.10;100658;;;;578716;244;24057;-79
2023/06/15 06:34:54;;;;;;;11.17;7.07;;;14.60;99.90;14.10;100651;;;;578740;244;24131;-80
2023/06/15 06:37:24;;;;;;;8.83;7.33;;;14.60;99.90;14.20;100654;;;;578631;244;24108;-81
2023/06/15 06:39:53;;;;;;;10.30;7.57;;;14.70;99.90;14.30;100641;;;;578994;244;24115;-81
2023/06/15 06:42:19;;;;;;;11.20;7.50;;;14.80;99.90;14.40;100630;;;;578716;244;24075;-80
2023/06/15 06:44:46;;;;;;;11.07;8.20;;;14.90;99.90;14.60;100628;;;;578880;244;24091;-80
2023/06/15 06:47:14;;;;;;;12.17;8.93;;;15.00;99.90;14.70;100643;;;;579053;244;24162;-80
2023/06/15 06:49:42;;;;;;;10.40;8.43;;;15.10;99.90;14.80;100651;;;;579010;244;24084;-80
2023/06/15 06:52:10;;;;;;;17.60;8.47;;;15.20;99.90;14.90;100653;;;;579773;243;24057;-80
2023/06/15 06:54:38;;;;;;;12.13;7.90;;;15.40;99.90;15.10;100644;;;;579841;243;24097;-80
2023/06/15 06:57:06;;;;;;;10.10;7.77;;;15.60;99.90;15.30;100634;;;;579672;244;24044;-80
2023/06/15 06:59:37;;;;;;;11.53;7.47;;;15.70;99.90;15.40;100636;;;;579509;244;24061;-80
2023/06/15 07:02:02;;;;;;;7.20;6.50;;;15.90;99.90;15.60;100633;;;;578916;244;24144;-80
2023/06/15 07:04:30;;;;;;;8.70;6.87;;;16.00;99.90;15.60;100635;;;;579217;244;24048;-79
2023/06/15 07:06:58;;;;;;;13.70;7.00;;;16.10;99.90;15.70;100631;;;;579195;244;24118;-78
2023/06/15 07:09:26;;;;;;;6.90;6.20;;;16.20;99.90;15.60;100632;;;;579578;244;24054;-80
2023/06/15 07:11:54;;;;;;;7.80;6.37;;;16.20;99.90;15.70;100635;;;;579319;244;24079;-80
2023/06/15 07:14:22;;;;;;;13.80;7.40;;;16.20;99.90;15.70;100624;;;;579306;244;24073;-77
2023/06/15 07:16:51;;;;;;;11.30;6.20;;;16.40;99.90;15.80;100611;;;;579353;244;24058;-77
2023/06/15 07:19:20;;;;;;;8.87;7.00;;;16.50;99.90;16.00;100599;;;;579244;244;24063;-79
2023/06/15 07:21:48;;;;;;;7.30;5.80;;;16.50;99.90;16.10;100594;;;;579317;244;24054;-80
2023/06/15 07:24:16;;;;;;;7.80;6.33;;;16.70;99.90;16.60;100594;;;;579409;244;24070;-79
2023/06/15 07:26:43;;;;;;;6.93;6.23;;;17.10;99.90;17.10;100596;;;;579031;244;24085;-79
2023/06/15 07:29:11;;;;;;;8.63;6.30;;;17.60;99.90;17.60;100594;;;;578644;244;24170;-79
2023/06/15 07:31:39;;;;;;;14.90;6.17;;;18.10;99.90;18.30;100595;;;;578583;244;24113;-79
2023/06/15 07:34:07;;;;;;;7.97;6.27;;;18.80;99.90;19.70;100598;;;;578643;244;24037;-80
2023/06/15 07:36:37;;;;;;;8.03;5.60;;;21.70;99.90;21.50;100590;;;;578606;244;23079;-79
2023/06/15 07:39:05;;;;;;;6.27;5.67;;;24.90;99.90;24.90;100592;;;;579046;244;24045;-80
2023/06/15 07:41:32;;;;;;;8.43;4.90;;;24.80;99.90;27.90;100600;;;;578852;244;23154;-78
2023/06/15 07:44:01;;;;;;;5.60;4.30;;;28.00;99.90;30.50;100595;;;;578998;244;23135;-80
2023/06/15 07:46:31;;;;;;;5.65;4.30;;;30.70;99.90;32.70;100583;;;;578972;244;24102;-80
2023/06/15 07:48:56;;;;;;;5.43;4.43;;;33.10;93.10;32.40;100595;;;;578506;244;23075;-80
2023/06/15 07:51:24;;;;;;;6.65;3.70;;;33.40;82.60;31.00;100603;;;;579006;244;23068;-79
2023/06/15 07:53:52;;;;;;;4.25;3.58;;;32.60;81.70;29.60;100608;;;;578956;244;23122;-79
2023/06/15 07:56:20;;;;;;;7.90;3.33;;;31.40;82.50;28.40;100607;;;;578699;244;23098;-80
2023/06/15 07:58:48;;;;;;;12.07;3.85;;;30.00;83.60;27.30;100617;;;;578655;244;23097;-81
2023/06/15 08:01:16;;;;;;;5.43;3.58;;;28.70;86.10;26.40;100611;;;;578593;244;24137;-79
2023/06/15 08:03:44;;;;;;;8.20;3.78;;;27.60;89.80;25.80;100612;;;;579320;243;23133;-80
2023/06/15 08:06:12;;;;;;;4.40;4.00;;;26.80;91.30;25.40;100603;;;;579871;243;23078;-79
2023/06/15 08:08:40;;;;;;;6.90;4.43;;;26.20;92.80;25.10;100600;;;;579655;244;23101;-79
2023/06/15 08:11:09;;;;;;;5.07;4.40;;;25.40;95.80;24.70;100603;;;;579843;244;23062;-79
2023/06/15 08:13:40;;;;;;;6.37;4.47;;;25.30;95.70;24.40;100601;;;;579661;244;24116;-80
2023/06/15 08:16:07;;;;;;;5.30;3.97;;;25.00;97.70;24.10;100606;;;;579377;244;23078;-79
2023/06/15 08:18:35;;;;;;;4.07;3.70;;;24.70;99.00;23.70;100601;;;;579583;244;23088;-79
2023/06/15 08:21:03;;;;;;;4.87;4.17;;;24.30;99.70;23.40;100596;;;;579533;244;23063;-80
2023/06/15 08:23:31;;;;;;;3.90;3.60;;;24.00;99.90;22.90;100587;;;;578873;244;23114;-78
2023/06/15 08:25:59;;;;;;;7.70;4.17;;;23.50;99.90;22.50;100580;;;;579301;244;24137;-79
2023/06/15 08:28:26;;;;;;;5.30;4.23;;;23.10;99.90;22.40;100589;;;;578931;244;24065;-80
2023/06/15 08:30:54;;;;;;;4.67;3.93;;;22.90;99.90;22.50;100586;;;;579108;244;24067;-79
2023/06/15 08:33:22;;;;;;;6.63;3.77;;;22.90;99.90;23.00;100583;;;;588503;244;23066;-81
2023/06/15 08:35:50;;;;;;;3.97;3.30;;;23.30;99.90;23.90;100586;;;;578780;244;23149;-79
2023/06/15 08:38:18;;;;;;;5.80;3.60;;;24.10;99.90;24.80;100577;;;;579098;244;23089;-80
2023/06/15 08:40:46;;;;;;;4.07;3.67;;;25.10;99.90;26.10;100582;;;;579047;244;24089;-79
2023/06/15 08:43:16;;;;;;;5.47;3.50;;;26.30;99.90;27.30;100591;;;;579043;244;23167;-81
2023/06/15 08:45:44;;;;;;;6.70;3.63;;;27.50;98.50;28.30;100596;;;;579014;244;24131;-79
2023/06/15 08:48:16;;;;;;;3.80;3.37;;;28.70;93.10;28.00;100592;;;;578804;244;23127;-80
2023/06/15 08:50:40;;;;;;;6.85;3.33;;;28.60;90.60;27.40;100597;;;;578749;244;24083;-79
2023/06/15 08:53:12;;;;;;;6.18;3.65;;;28.20;90.20;26.60;100599;;;;579106;244;24106;-79
2023/06/15 08:55:36;;;;;;;4.27;3.60;;;27.50;91.00;26.00;100598;;;;578368;244;23062;-79
2023/06/15 08:58:05;;;;;;;4.10;3.50;;;26.80;90.60;25.60;100598;;;;578668;244;23126;-79
2023/06/15 09:00:35;;;;;;;5.57;4.13;;;26.20;91.60;25.40;100601;;;;579054;244;23098;-78
2023/06/15 09:03:03;;;;;;;6.53;3.20;;;25.90;91.70;25.30;100586;;;;581972;244;23081;-79
2023/06/15 09:05:31;;;;;;;5.93;3.47;;;25.90;91.40;24.80;100589;;;;578495;244;23122;-79
2023/06/15 09:08:00;;;;;;;3.07;2.60;;;25.50;91.30;24.40;100596;;;;578998;244;23059;-80
2023/06/15 09:10:28;;;;;;;4.23;2.60;;;25.00;91.40;24.10;100582;;;;578517;244;23084;-79
2023/06/15 09:12:55;;;;;;;5.43;3.30;;;24.70;92.50;24.30;100587;;;;578729;244;23176;-80
2023/06/15 09:15:30;;;;;;;3.87;3.07;;;24.70;93.20;24.80;100582;;;;579382;243;23077;-79
2023/06/15 09:17:57;;;;;;;4.07;3.00;;;25.10;93.10;25.00;100592;;;;579544;243;23119;-79
2023/06/15 09:20:25;;;;;;;5.23;3.43;;;25.40;92.10;25.30;100595;;;;579577;244;24076;-78
2023/06/15 09:23:02;;;;;;;3.20;3.00;;;25.70;91.80;25.70;100581;;;;579408;244;23107;-79
2023/06/15 09:25:32;;;;;;;4.10;3.10;;;26.30;90.50;25.90;100582;;;;579177;244;24078;-80
2023/06/15 09:28:05;;;;;;;3.30;3.10;;;26.30;90.50;25.80;100582;;;;579165;244;23106;-79
2023/06/15 09:30:38;;;;;;;3.40;3.03;;;26.30;89.80;26.30;100586;;;;582653;245;23057;-79
2023/06/15 09:33:18;;;;;;;3.50;3.12;;;26.60;89.60;27.00;100589;;;;573809;246;23050;-79
2023/06/15 09:36:04;;;;;;;5.60;3.27;;;27.30;86.20;28.40;100591;;;;584292;241;24060;-80
2023/06/15 09:38:32;;;;;;;4.62;3.10;;;28.60;81.00;28.80;100600;;;;584396;236;23072;-79
2023/06/15 09:41:06;;;;;;;3.78;3.08;;;29.40;78.80;28.20;100588;;;;582890;244;25311;-80
2023/06/15 09:43:36;;;;;;;3.67;2.62;;;29.00;76.60;27.50;100599;;;;578213;244;23082;-80
2023/06/15 09:46:19;;;;;;;5.82;2.72;;;27.80;75.10;26.90;100589;;;;578677;244;23069;-80
2023/06/15 09:48:46;;;;;;;4.67;3.10;;;27.70;75.10;26.10;100594;;;;574078;246;23069;-79
2023/06/15 09:51:16;;;;;;;4.43;3.00;;;26.90;76.40;25.30;100583;;;;574014;246;24081;-79
2023/06/15 09:53:44;;;;;;;5.60;2.90;;;26.10;78.20;24.70;100593;;;;584176;241;23029;-80
2023/06/15 09:56:14;;;;;;;3.57;2.93;;;25.30;80.00;24.40;100588;;;;578309;244;23091;-81
2023/06/15 09:58:39;;;;;;;3.57;3.00;;;25.00;81.90;24.20;100571;;;;573250;246;23062;-80
2023/06/15 10:01:07;;;;;;;3.03;2.80;;;24.70;82.90;24.60;100582;;;;584278;241;23033;-81
2023/06/15 10:03:35;;;;;;;3.97;3.30;;;25.00;84.80;25.00;100577;;;;578171;244;24069;-79
2023/06/15 10:06:13;;;;;;;4.77;3.03;;;25.90;83.00;25.50;100571;;;;578982;244;23101;-79
2023/06/15 10:08:41;;;;;;;6.07;3.57;;;26.30;83.40;25.90;100580;;;;579239;244;23083;-79
2023/06/15 10:11:12;;;;;;;4.47;3.40;;;26.20;83.30;26.60;100556;;;;578625;244;23067;-80
2023/06/15 10:13:40;;;;;;;3.00;2.80;;;26.90;82.60;27.20;100562;;;;578418;244;23138;-79
2023/06/15 10:16:08;;;;;;;4.13;2.90;;;27.60;79.70;27.30;100554;;;;577925;244;23062;-80
2023/06/15 10:18:39;;;;;;;3.75;3.25;;;27.80;78.00;27.10;100556;;;;578563;244;23067;-80
2023/06/15 10:21:04;;;;;;;4.57;3.30;;;27.60;78.90;26.70;100567;;;;578102;244;23111;-79
2023/06/15 10:23:36;;;;;;;3.37;3.00;;;27.30;78.50;26.40;100569;;;;578748;244;23092;-80
2023/06/15 10:26:00;;;;;;;8.60;3.70;;;27.00;78.20;26.20;100573;;;;573468;246;23121;-80
2023/06/15 10:28:28;;;;;;;3.00;2.80;;;26.80;78.90;26.90;100583;;;;585263;241;24018;-80
2023/06/15 10:31:05;;;;;;;6.03;3.47;;;27.20;79.50;27.60;100578;;;;574624;245;23065;-80
2023/06/15 10:33:57;;;;;;;4.40;3.33;;;28.00;78.40;28.10;100577;;;;574663;246;24066;-80
2023/06/15 10:36:25;;;;;;;5.78;3.37;;;28.60;76.90;28.10;100579;;;;574136;241;24068;-81
2023/06/15 10:38:58;;;;;;;9.95;3.37;;;28.80;75.40;28.00;100570;;;;574135;246;23061;-80
2023/06/15 10:41:29;;;;;;;6.53;3.30;;;28.60;75.80;28.00;100575;;;;578404;241;23052;-80
2023/06/15 10:43:57;;;;;;;6.40;3.15;;;28.50;76.70;27.80;100567;;;;584784;241;23125;-79
2023/06/15 10:46:31;;;;;;;6.50;3.37;;;28.30;76.00;27.80;100570;;;;578954;244;23145;-81
2023/06/15 10:49:11;;;;;;;3.50;3.17;;;28.20;74.90;27.60;100579;;;;574594;246;23069;-80
2023/06/15 10:51:39;;;;;;;2.90;2.70;;;27.60;74.30;27.10;100573;;;;584419;241;24043;-80
2023/06/15 10:54:22;;;;;;;2.72;2.53;;;27.60;74.20;26.90;100572;;;;578961;244;23070;-80
2023/06/15 10:56:54;;;;;;;6.77;3.37;;;27.10;77.00;26.60;100568;;;;583388;244;23081;-79
2023/06/15 10:59:49;;;;;;;5.37;3.10;;;27.10;77.00;26.50;100571;;;;578998;244;24082;-81
2023/06/15 11:02:33;;;;;;;2.97;2.73;;;26.90;76.60;26.40;100568;;;;579281;244;24079;-79
2023/06/15 11:05:12;;;;;;;5.30;3.10;;;26.90;77.10;26.60;100567;;;;578199;244;23090;-80
2023/06/15 11:07:43;;;;;;;5.47;3.00;;;26.90;77.30;26.70;100565;;;;583824;244;23082;-80
2023/06/15 11:10:23;;;;;;;4.77;2.63;;;27.10;76.40;26.70;100569;;;;578433;244;23079;-79
2023/06/15 11:13:03;;;;;;;5.37;2.70;;;27.20;76.00;26.70;100566;;;;579317;244;23067;-79
2023/06/15 11:15:37;;;;;;;3.77;3.03;;;27.20;76.00;26.70;100568;;;;578979;244;23071;-80
2023/06/15 11:18:14;;;;;;;3.63;3.20;;;27.10;76.90;26.80;100566;;;;578897;244;24125;-80